sensor_id;sensor_type;location;lat;lon;timestamp;P1;durP1;ratioP1;P2;durP2;ratioP2
14760;SDS011;7472;45.396;5.272;2023-09-30T00:00:47;21.25;;;9.10;;
14760;SDS011;7472;45.396;5.272;2023-09-30T00:03:15;22.75;;;8.73;;
14760;SDS011;7472;45.396;5.272;2023-09-30T00:05:42;19.00;;;8.82;;
14760;SDS011;7472;45.396;5.272;2023-09-30T00:08:09;16.52;;;7.95;;
14760;SDS011;7472;45.396;5.272;2023-09-30T00:10:38;16.75;;;8.00;;
14760;SDS011;7472;45.396;5.272;2023-09-30T00:13:06;17.60;;;8.30;;
14760;SDS011;7472;45.396;5.272;2023-09-30T00:15:33;15.93;;;8.32;;
14760;SDS011;7472;45.396;5.272;2023-09-30T00:18:00;20.45;;;8.13;;
14760;SDS011;7472;45.396;5.272;2023-09-30T00:20:28;18.60;;;8.13;;
14760;SDS011;7472;45.396;5.272;2023-09-30T00:22:55;18.45;;;8.82;;
14760;SDS011;7472;45.396;5.272;2023-09-30T00:25:23;18.33;;;6.65;;
14760;SDS011;7472;45.396;5.272;2023-09-30T00:27:52;17.70;;;8.57;;
14760;SDS011;7472;45.396;5.272;2023-09-30T00:30:19;19.20;;;8.10;;
14760;SDS011;7472;45.396;5.272;2023-09-30T00:32:46;18.13;;;7.45;;
14760;SDS011;7472;45.396;5.272;2023-09-30T00:35:14;16.75;;;7.65;;
14760;SDS011;7472;45.396;5.272;2023-09-30T00:37:42;16.73;;;7.93;;
14760;SDS011;7472;45.396;5.272;2023-09-30T00:40:10;18.90;;;8.57;;
14760;SDS011;7472;45.396;5.272;2023-09-30T00:42:38;16.98;;;8.00;;
14760;SDS011;7472;45.396;5.272;2023-09-30T00:45:08;18.73;;;8.02;;
14760;SDS011;7472;45.396;5.272;2023-09-30T00:47:35;16.85;;;7.35;;
14760;SDS011;7472;45.396;5.272;2023-09-30T00:50:03;19.48;;;7.90;;
14760;SDS011;7472;45.396;5.272;2023-09-30T00:52:33;19.80;;;8.07;;
14760;SDS011;7472;45.396;5.272;2023-09-30T00:55:02;15.80;;;8.15;;
14760;SDS011;7472;45.396;5.272;2023-09-30T00:57:31;17.98;;;7.88;;
14760;SDS011;7472;45.396;5.272;2023-09-30T00:59:58;23.95;;;9.02;;
14760;SDS011;7472;45.396;5.272;2023-09-30T01:02:29;15.95;;;7.55;;
14760;SDS011;7472;45.396;5.272;2023-09-30T01:04:57;20.38;;;8.90;;
14760;SDS011;7472;45.396;5.272;2023-09-30T01:07:25;20.83;;;9.13;;
14760;SDS011;7472;45.396;5.272;2023-09-30T01:09:52;19.45;;;7.82;;
14760;SDS011;7472;45.396;5.272;2023-09-30T01:12:20;17.10;;;7.63;;
14760;SDS011;7472;45.396;5.272;2023-09-30T01:14:47;15.07;;;7.75;;
14760;SDS011;7472;45.396;5.272;2023-09-30T01:17:15;18.20;;;8.18;;
14760;SDS011;7472;45.396;5.272;2023-09-30T01:19:43;16.98;;;7.88;;
14760;SDS011;7472;45.396;5.272;2023-09-30T01:22:13;15.38;;;7.82;;
14760;SDS011;7472;45.396;5.272;2023-09-30T01:24:41;17.10;;;7.15;;
14760;SDS011;7472;45.396;5.272;2023-09-30T01:27:09;17.35;;;8.35;;
14760;SDS011;7472;45.396;5.272;2023-09-30T01:29:38;16.70;;;8.35;;
14760;SDS011;7472;45.396;5.272;2023-09-30T01:32:05;18.13;;;7.90;;
14760;SDS011;7472;45.396;5.272;2023-09-30T01:34:35;19.33;;;7.43;;
14760;SDS011;7472;45.396;5.272;2023-09-30T01:37:02;20.38;;;8.38;;
14760;SDS011;7472;45.396;5.272;2023-09-30T01:39:31;18.65;;;7.65;;
14760;SDS011;7472;45.396;5.272;2023-09-30T01:41:59;15.43;;;7.47;;
14760;SDS011;7472;45.396;5.272;2023-09-30T01:44:26;17.35;;;7.68;;
14760;SDS011;7472;45.396;5.272;2023-09-30T01:46:53;17.60;;;8.63;;
14760;SDS011;7472;45.396;5.272;2023-09-30T01:49:21;18.17;;;7.63;;
14760;SDS011;7472;45.396;5.272;2023-09-30T01:51:49;16.50;;;7.13;;
14760;SDS011;7472;45.396;5.272;2023-09-30T01:54:16;19.50;;;7.72;;
14760;SDS011;7472;45.396;5.272;2023-09-30T01:56:45;19.02;;;7.35;;
14760;SDS011;7472;45.396;5.272;2023-09-30T01:59:12;16.23;;;7.50;;
14760;SDS011;7472;45.396;5.272;2023-09-30T02:01:40;14.30;;;7.45;;
14760;SDS011;7472;45.396;5.272;2023-09-30T02:04:07;14.65;;;7.13;;
14760;SDS011;7472;45.396;5.272;2023-09-30T02:06:34;14.32;;;7.20;;
14760;SDS011;7472;45.396;5.272;2023-09-30T02:09:02;15.77;;;7.45;;
14760;SDS011;7472;45.396;5.272;2023-09-30T02:11:33;16.77;;;7.85;;
14760;SDS011;7472;45.396;5.272;2023-09-30T02:14:03;15.75;;;7.00;;
14760;SDS011;7472;45.396;5.272;2023-09-30T02:16:32;15.52;;;7.63;;
14760;SDS011;7472;45.396;5.272;2023-09-30T02:18:59;14.95;;;7.25;;
14760;SDS011;7472;45.396;5.272;2023-09-30T02:21:27;13.80;;;7.03;;
14760;SDS011;7472;45.396;5.272;2023-09-30T02:23:54;15.18;;;8.10;;
14760;SDS011;7472;45.396;5.272;2023-09-30T02:26:22;12.50;;;6.25;;
14760;SDS011;7472;45.396;5.272;2023-09-30T02:28:50;17.80;;;7.22;;
14760;SDS011;7472;45.396;5.272;2023-09-30T02:31:20;16.90;;;7.82;;
14760;SDS011;7472;45.396;5.272;2023-09-30T02:33:49;17.33;;;7.13;;
14760;SDS011;7472;45.396;5.272;2023-09-30T02:36:16;17.25;;;6.95;;
14760;SDS011;7472;45.396;5.272;2023-09-30T02:38:44;16.00;;;7.60;;
14760;SDS011;7472;45.396;5.272;2023-09-30T02:41:11;16.02;;;6.72;;
14760;SDS011;7472;45.396;5.272;2023-09-30T02:43:38;15.68;;;6.90;;
14760;SDS011;7472;45.396;5.272;2023-09-30T02:46:06;14.77;;;6.88;;
14760;SDS011;7472;45.396;5.272;2023-09-30T02:48:36;15.60;;;6.75;;
14760;SDS011;7472;45.396;5.272;2023-09-30T02:51:03;18.60;;;6.40;;
14760;SDS011;7472;45.396;5.272;2023-09-30T02:53:31;14.95;;;7.38;;
14760;SDS011;7472;45.396;5.272;2023-09-30T02:55:58;15.45;;;7.90;;
14760;SDS011;7472;45.396;5.272;2023-09-30T02:58:26;14.45;;;6.90;;
14760;SDS011;7472;45.396;5.272;2023-09-30T03:00:54;20.02;;;6.70;;
14760;SDS011;7472;45.396;5.272;2023-09-30T03:03:21;14.45;;;7.20;;
14760;SDS011;7472;45.396;5.272;2023-09-30T03:05:52;14.77;;;6.95;;
14760;SDS011;7472;45.396;5.272;2023-09-30T03:08:19;18.25;;;7.47;;
14760;SDS011;7472;45.396;5.272;2023-09-30T03:10:47;14.85;;;7.72;;
14760;SDS011;7472;45.396;5.272;2023-09-30T03:13:14;13.18;;;6.97;;
14760;SDS011;7472;45.396;5.272;2023-09-30T03:15:43;18.98;;;7.57;;
14760;SDS011;7472;45.396;5.272;2023-09-30T03:18:11;17.65;;;8.27;;
14760;SDS011;7472;45.396;5.272;2023-09-30T03:20:39;15.43;;;6.60;;
14760;SDS011;7472;45.396;5.272;2023-09-30T03:23:09;18.48;;;7.20;;
14760;SDS011;7472;45.396;5.272;2023-09-30T03:25:39;16.48;;;7.45;;
14760;SDS011;7472;45.396;5.272;2023-09-30T03:28:07;15.82;;;7.50;;
14760;SDS011;7472;45.396;5.272;2023-09-30T03:30:34;14.15;;;7.43;;
14760;SDS011;7472;45.396;5.272;2023-09-30T03:33:02;13.95;;;6.18;;
14760;SDS011;7472;45.396;5.272;2023-09-30T03:35:29;14.70;;;7.57;;
14760;SDS011;7472;45.396;5.272;2023-09-30T03:37:57;19.38;;;7.80;;
14760;SDS011;7472;45.396;5.272;2023-09-30T03:40:28;16.30;;;7.53;;
14760;SDS011;7472;45.396;5.272;2023-09-30T03:42:59;16.65;;;7.40;;
14760;SDS011;7472;45.396;5.272;2023-09-30T03:45:26;20.52;;;7.75;;
14760;SDS011;7472;45.396;5.272;2023-09-30T03:47:54;15.48;;;7.40;;
14760;SDS011;7472;45.396;5.272;2023-09-30T03:50:21;19.20;;;8.80;;
14760;SDS011;7472;45.396;5.272;2023-09-30T03:52:49;17.83;;;8.15;;
14760;SDS011;7472;45.396;5.272;2023-09-30T03:55:17;18.77;;;7.75;;
14760;SDS011;7472;45.396;5.272;2023-09-30T03:57:47;14.15;;;7.45;;
14760;SDS011;7472;45.396;5.272;2023-09-30T04:00:16;13.52;;;6.95;;
14760;SDS011;7472;45.396;5.272;2023-09-30T04:02:44;19.55;;;8.75;;
14760;SDS011;7472;45.396;5.272;2023-09-30T04:05:14;19.80;;;8.05;;
14760;SDS011;7472;45.396;5.272;2023-09-30T04:07:42;17.27;;;6.72;;
14760;SDS011;7472;45.396;5.272;2023-09-30T04:10:10;19.83;;;8.30;;
14760;SDS011;7472;45.396;5.272;2023-09-30T04:12:37;20.42;;;7.70;;
14760;SDS011;7472;45.396;5.272;2023-09-30T04:15:07;17.38;;;8.02;;
14760;SDS011;7472;45.396;5.272;2023-09-30T04:17:37;18.33;;;8.10;;
14760;SDS011;7472;45.396;5.272;2023-09-30T04:20:05;17.42;;;8.25;;
14760;SDS011;7472;45.396;5.272;2023-09-30T04:22:34;26.45;;;8.43;;
14760;SDS011;7472;45.396;5.272;2023-09-30T04:25:02;14.20;;;7.85;;
14760;SDS011;7472;45.396;5.272;2023-09-30T04:27:31;16.83;;;8.10;;
14760;SDS011;7472;45.396;5.272;2023-09-30T04:29:58;15.57;;;8.00;;
14760;SDS011;7472;45.396;5.272;2023-09-30T04:32:28;16.45;;;7.65;;
14760;SDS011;7472;45.396;5.272;2023-09-30T04:34:56;16.38;;;7.55;;
14760;SDS011;7472;45.396;5.272;2023-09-30T04:37:23;16.38;;;7.05;;
14760;SDS011;7472;45.396;5.272;2023-09-30T04:39:50;15.73;;;7.90;;
14760;SDS011;7472;45.396;5.272;2023-09-30T04:42:18;17.25;;;8.10;;
14760;SDS011;7472;45.396;5.272;2023-09-30T04:44:46;16.77;;;8.00;;
14760;SDS011;7472;45.396;5.272;2023-09-30T04:47:14;17.92;;;8.05;;
14760;SDS011;7472;45.396;5.272;2023-09-30T04:49:43;19.02;;;7.90;;
14760;SDS011;7472;45.396;5.272;2023-09-30T04:52:10;19.05;;;7.18;;
14760;SDS011;7472;45.396;5.272;2023-09-30T04:54:37;20.33;;;8.38;;
14760;SDS011;7472;45.396;5.272;2023-09-30T04:57:05;16.77;;;7.97;;
14760;SDS011;7472;45.396;5.272;2023-09-30T04:59:32;17.58;;;7.60;;
14760;SDS011;7472;45.396;5.272;2023-09-30T05:02:00;18.85;;;8.32;;
14760;SDS011;7472;45.396;5.272;2023-09-30T05:04:28;16.92;;;8.50;;
14760;SDS011;7472;45.396;5.272;2023-09-30T05:06:57;18.73;;;7.53;;
14760;SDS011;7472;45.396;5.272;2023-09-30T05:09:25;19.00;;;7.35;;
14760;SDS011;7472;45.396;5.272;2023-09-30T05:11:53;17.45;;;8.18;;
14760;SDS011;7472;45.396;5.272;2023-09-30T05:14:21;20.00;;;10.05;;
14760;SDS011;7472;45.396;5.272;2023-09-30T05:16:48;17.98;;;8.35;;
14760;SDS011;7472;45.396;5.272;2023-09-30T05:19:16;19.85;;;8.73;;
14760;SDS011;7472;45.396;5.272;2023-09-30T05:21:43;16.58;;;7.85;;
14760;SDS011;7472;45.396;5.272;2023-09-30T05:24:12;19.83;;;9.30;;
14760;SDS011;7472;45.396;5.272;2023-09-30T05:26:39;17.90;;;6.97;;
14760;SDS011;7472;45.396;5.272;2023-09-30T05:29:06;16.58;;;7.88;;
14760;SDS011;7472;45.396;5.272;2023-09-30T05:31:34;17.40;;;8.02;;
14760;SDS011;7472;45.396;5.272;2023-09-30T05:34:01;17.63;;;7.40;;
14760;SDS011;7472;45.396;5.272;2023-09-30T05:36:29;13.52;;;6.60;;
14760;SDS011;7472;45.396;5.272;2023-09-30T05:38:57;17.83;;;7.75;;
14760;SDS011;7472;45.396;5.272;2023-09-30T05:41:26;17.33;;;7.43;;
14760;SDS011;7472;45.396;5.272;2023-09-30T05:43:53;17.67;;;7.55;;
14760;SDS011;7472;45.396;5.272;2023-09-30T05:46:20;16.00;;;7.80;;
14760;SDS011;7472;45.396;5.272;2023-09-30T05:48:48;21.73;;;9.00;;
14760;SDS011;7472;45.396;5.272;2023-09-30T05:51:15;15.05;;;7.35;;
14760;SDS011;7472;45.396;5.272;2023-09-30T05:53:43;19.90;;;8.63;;
14760;SDS011;7472;45.396;5.272;2023-09-30T05:56:12;19.88;;;8.05;;
14760;SDS011;7472;45.396;5.272;2023-09-30T05:58:41;17.42;;;7.75;;
14760;SDS011;7472;45.396;5.272;2023-09-30T06:01:09;20.08;;;8.43;;
14760;SDS011;7472;45.396;5.272;2023-09-30T06:03:37;18.50;;;7.05;;
14760;SDS011;7472;45.396;5.272;2023-09-30T06:06:10;17.23;;;7.53;;
14760;SDS011;7472;45.396;5.272;2023-09-30T06:08:39;17.10;;;7.72;;
14760;SDS011;7472;45.396;5.272;2023-09-30T06:11:06;15.45;;;7.93;;
14760;SDS011;7472;45.396;5.272;2023-09-30T06:13:33;15.55;;;7.28;;
14760;SDS011;7472;45.396;5.272;2023-09-30T06:16:02;20.85;;;7.65;;
14760;SDS011;7472;45.396;5.272;2023-09-30T06:18:31;15.45;;;6.55;;
14760;SDS011;7472;45.396;5.272;2023-09-30T06:20:59;16.00;;;8.07;;
14760;SDS011;7472;45.396;5.272;2023-09-30T06:23:29;16.45;;;6.95;;
14760;SDS011;7472;45.396;5.272;2023-09-30T06:25:56;15.77;;;8.25;;
14760;SDS011;7472;45.396;5.272;2023-09-30T06:28:24;17.90;;;7.82;;
14760;SDS011;7472;45.396;5.272;2023-09-30T06:30:53;16.80;;;7.45;;
14760;SDS011;7472;45.396;5.272;2023-09-30T06:33:22;16.90;;;6.80;;
14760;SDS011;7472;45.396;5.272;2023-09-30T06:35:50;17.40;;;7.18;;
14760;SDS011;7472;45.396;5.272;2023-09-30T06:38:18;15.18;;;7.80;;
14760;SDS011;7472;45.396;5.272;2023-09-30T06:40:45;18.92;;;8.23;;
14760;SDS011;7472;45.396;5.272;2023-09-30T06:43:12;16.55;;;7.28;;
14760;SDS011;7472;45.396;5.272;2023-09-30T06:45:41;18.15;;;8.73;;
14760;SDS011;7472;45.396;5.272;2023-09-30T06:48:09;16.27;;;8.02;;
14760;SDS011;7472;45.396;5.272;2023-09-30T06:50:40;17.27;;;7.75;;
14760;SDS011;7472;45.396;5.272;2023-09-30T06:53:07;19.13;;;8.30;;
14760;SDS011;7472;45.396;5.272;2023-09-30T06:55:36;17.83;;;7.80;;
14760;SDS011;7472;45.396;5.272;2023-09-30T06:58:03;15.68;;;7.78;;
14760;SDS011;7472;45.396;5.272;2023-09-30T07:00:32;17.52;;;8.60;;
14760;SDS011;7472;45.396;5.272;2023-09-30T07:03:00;20.13;;;8.40;;
14760;SDS011;7472;45.396;5.272;2023-09-30T07:05:28;18.08;;;7.78;;
14760;SDS011;7472;45.396;5.272;2023-09-30T07:07:57;15.40;;;7.53;;
14760;SDS011;7472;45.396;5.272;2023-09-30T07:10:25;13.55;;;7.30;;
14760;SDS011;7472;45.396;5.272;2023-09-30T07:12:52;14.23;;;6.93;;
14760;SDS011;7472;45.396;5.272;2023-09-30T07:15:19;17.58;;;7.75;;
14760;SDS011;7472;45.396;5.272;2023-09-30T07:17:47;15.68;;;7.22;;
14760;SDS011;7472;45.396;5.272;2023-09-30T07:20:14;18.70;;;7.80;;
14760;SDS011;7472;45.396;5.272;2023-09-30T07:22:43;16.75;;;7.15;;
14760;SDS011;7472;45.396;5.272;2023-09-30T07:25:11;14.90;;;7.32;;
14760;SDS011;7472;45.396;5.272;2023-09-30T07:27:39;18.58;;;7.90;;
14760;SDS011;7472;45.396;5.272;2023-09-30T07:30:07;14.48;;;8.30;;
14760;SDS011;7472;45.396;5.272;2023-09-30T07:32:37;16.15;;;7.63;;
14760;SDS011;7472;45.396;5.272;2023-09-30T07:35:05;16.08;;;7.40;;
14760;SDS011;7472;45.396;5.272;2023-09-30T07:37:33;15.35;;;7.88;;
14760;SDS011;7472;45.396;5.272;2023-09-30T07:40:00;14.75;;;6.68;;
14760;SDS011;7472;45.396;5.272;2023-09-30T07:42:29;19.67;;;8.00;;
14760;SDS011;7472;45.396;5.272;2023-09-30T07:44:58;16.08;;;7.47;;
14760;SDS011;7472;45.396;5.272;2023-09-30T07:47:25;14.32;;;7.97;;
14760;SDS011;7472;45.396;5.272;2023-09-30T07:49:53;17.58;;;7.75;;
14760;SDS011;7472;45.396;5.272;2023-09-30T07:52:20;14.77;;;7.15;;
14760;SDS011;7472;45.396;5.272;2023-09-30T07:54:47;14.23;;;7.60;;
14760;SDS011;7472;45.396;5.272;2023-09-30T07:57:15;14.98;;;6.78;;
14760;SDS011;7472;45.396;5.272;2023-09-30T07:59:44;13.75;;;6.35;;
14760;SDS011;7472;45.396;5.272;2023-09-30T08:02:11;14.50;;;7.40;;
14760;SDS011;7472;45.396;5.272;2023-09-30T08:04:39;15.57;;;7.70;;
14760;SDS011;7472;45.396;5.272;2023-09-30T08:07:06;14.40;;;6.70;;
14760;SDS011;7472;45.396;5.272;2023-09-30T08:09:34;16.83;;;7.55;;
14760;SDS011;7472;45.396;5.272;2023-09-30T08:12:02;12.35;;;5.97;;
14760;SDS011;7472;45.396;5.272;2023-09-30T08:14:30;15.05;;;8.32;;
14760;SDS011;7472;45.396;5.272;2023-09-30T08:16:58;13.88;;;6.75;;
14760;SDS011;7472;45.396;5.272;2023-09-30T08:19:27;15.65;;;7.25;;
14760;SDS011;7472;45.396;5.272;2023-09-30T08:21:55;12.20;;;7.50;;
14760;SDS011;7472;45.396;5.272;2023-09-30T08:24:22;14.00;;;5.93;;
14760;SDS011;7472;45.396;5.272;2023-09-30T08:26:50;14.13;;;5.97;;
14760;SDS011;7472;45.396;5.272;2023-09-30T08:29:17;12.85;;;6.50;;
14760;SDS011;7472;45.396;5.272;2023-09-30T08:31:44;13.07;;;5.88;;
14760;SDS011;7472;45.396;5.272;2023-09-30T08:34:13;14.70;;;6.05;;
14760;SDS011;7472;45.396;5.272;2023-09-30T08:36:40;17.05;;;6.60;;
14760;SDS011;7472;45.396;5.272;2023-09-30T08:39:08;16.63;;;7.15;;
14760;SDS011;7472;45.396;5.272;2023-09-30T08:41:36;17.73;;;6.93;;
14760;SDS011;7472;45.396;5.272;2023-09-30T08:44:03;15.10;;;6.82;;
14760;SDS011;7472;45.396;5.272;2023-09-30T08:46:31;10.77;;;5.03;;
14760;SDS011;7472;45.396;5.272;2023-09-30T08:48:59;11.38;;;5.97;;
14760;SDS011;7472;45.396;5.272;2023-09-30T08:51:29;13.15;;;7.03;;
14760;SDS011;7472;45.396;5.272;2023-09-30T08:53:57;10.98;;;5.43;;
14760;SDS011;7472;45.396;5.272;2023-09-30T08:56:25;10.40;;;5.88;;
14760;SDS011;7472;45.396;5.272;2023-09-30T08:58:54;9.48;;;5.07;;
14760;SDS011;7472;45.396;5.272;2023-09-30T09:01:24;13.20;;;6.25;;
14760;SDS011;7472;45.396;5.272;2023-09-30T09:03:51;10.50;;;5.85;;
14760;SDS011;7472;45.396;5.272;2023-09-30T09:06:19;11.85;;;5.85;;
14760;SDS011;7472;45.396;5.272;2023-09-30T09:08:48;13.50;;;6.10;;
14760;SDS011;7472;45.396;5.272;2023-09-30T09:11:15;11.27;;;6.10;;
14760;SDS011;7472;45.396;5.272;2023-09-30T09:13:47;12.70;;;5.60;;
14760;SDS011;7472;45.396;5.272;2023-09-30T09:16:15;11.20;;;5.38;;
14760;SDS011;7472;45.396;5.272;2023-09-30T09:18:44;11.43;;;5.07;;
14760;SDS011;7472;45.396;5.272;2023-09-30T09:21:13;10.32;;;5.30;;
14760;SDS011;7472;45.396;5.272;2023-09-30T09:23:44;10.27;;;5.20;;
14760;SDS011;7472;45.396;5.272;2023-09-30T09:26:22;10.18;;;5.53;;
14760;SDS011;7472;45.396;5.272;2023-09-30T09:28:50;10.20;;;4.70;;
14760;SDS011;7472;45.396;5.272;2023-09-30T09:31:23;10.32;;;5.85;;
14760;SDS011;7472;45.396;5.272;2023-09-30T09:33:51;11.27;;;5.72;;
14760;SDS011;7472;45.396;5.272;2023-09-30T09:36:18;8.55;;;5.13;;
14760;SDS011;7472;45.396;5.272;2023-09-30T09:38:47;9.93;;;5.05;;
14760;SDS011;7472;45.396;5.272;2023-09-30T09:41:16;9.40;;;5.47;;
14760;SDS011;7472;45.396;5.272;2023-09-30T09:43:44;8.75;;;5.55;;
14760;SDS011;7472;45.396;5.272;2023-09-30T09:46:12;7.68;;;4.60;;
14760;SDS011;7472;45.396;5.272;2023-09-30T09:48:39;9.63;;;5.45;;
14760;SDS011;7472;45.396;5.272;2023-09-30T09:51:07;8.05;;;4.75;;
14760;SDS011;7472;45.396;5.272;2023-09-30T09:53:38;7.22;;;4.20;;
14760;SDS011;7472;45.396;5.272;2023-09-30T09:56:05;7.25;;;4.15;;
14760;SDS011;7472;45.396;5.272;2023-09-30T09:58:36;8.63;;;5.10;;
14760;SDS011;7472;45.396;5.272;2023-09-30T10:01:06;10.35;;;4.90;;
14760;SDS011;7472;45.396;5.272;2023-09-30T10:03:35;7.45;;;4.68;;
14760;SDS011;7472;45.396;5.272;2023-09-30T10:06:03;9.70;;;4.50;;
14760;SDS011;7472;45.396;5.272;2023-09-30T10:08:31;9.57;;;4.68;;
14760;SDS011;7472;45.396;5.272;2023-09-30T10:10:59;11.25;;;5.25;;
14760;SDS011;7472;45.396;5.272;2023-09-30T10:19:08;8.82;;;4.43;;
14760;SDS011;7472;45.396;5.272;2023-09-30T10:21:36;6.90;;;4.78;;
14760;SDS011;7472;45.396;5.272;2023-09-30T10:26:50;7.47;;;4.45;;
14760;SDS011;7472;45.396;5.272;2023-09-30T10:29:40;8.85;;;5.28;;
14760;SDS011;7472;45.396;5.272;2023-09-30T10:32:07;7.75;;;4.63;;
14760;SDS011;7472;45.396;5.272;2023-09-30T10:34:36;8.27;;;4.32;;
14760;SDS011;7472;45.396;5.272;2023-09-30T10:37:19;8.38;;;4.65;;
14760;SDS011;7472;45.396;5.272;2023-09-30T10:39:53;7.38;;;4.32;;
14760;SDS011;7472;45.396;5.272;2023-09-30T10:45:07;8.32;;;4.65;;
14760;SDS011;7472;45.396;5.272;2023-09-30T10:47:34;9.07;;;4.28;;
14760;SDS011;7472;45.396;5.272;2023-09-30T10:50:04;8.88;;;4.63;;
14760;SDS011;7472;45.396;5.272;2023-09-30T10:52:52;8.48;;;3.92;;
14760;SDS011;7472;45.396;5.272;2023-09-30T10:55:19;8.27;;;4.72;;
14760;SDS011;7472;45.396;5.272;2023-09-30T10:57:50;8.73;;;4.88;;
14760;SDS011;7472;45.396;5.272;2023-09-30T11:00:18;8.45;;;4.68;;
14760;SDS011;7472;45.396;5.272;2023-09-30T11:02:49;8.88;;;5.43;;
14760;SDS011;7472;45.396;5.272;2023-09-30T11:05:19;7.60;;;4.68;;
14760;SDS011;7472;45.396;5.272;2023-09-30T11:07:47;5.68;;;3.28;;
14760;SDS011;7472;45.396;5.272;2023-09-30T11:10:16;9.30;;;5.47;;
14760;SDS011;7472;45.396;5.272;2023-09-30T11:15:29;7.72;;;4.78;;
14760;SDS011;7472;45.396;5.272;2023-09-30T11:18:02;9.20;;;4.82;;
14760;SDS011;7472;45.396;5.272;2023-09-30T11:20:41;8.00;;;4.80;;
14760;SDS011;7472;45.396;5.272;2023-09-30T11:23:09;9.65;;;4.85;;
14760;SDS011;7472;45.396;5.272;2023-09-30T11:25:38;8.48;;;5.13;;
14760;SDS011;7472;45.396;5.272;2023-09-30T11:28:13;11.63;;;5.70;;
14760;SDS011;7472;45.396;5.272;2023-09-30T11:30:52;7.43;;;4.45;;
14760;SDS011;7472;45.396;5.272;2023-09-30T11:33:20;7.63;;;5.28;;
14760;SDS011;7472;45.396;5.272;2023-09-30T11:35:59;8.30;;;5.10;;
14760;SDS011;7472;45.396;5.272;2023-09-30T11:38:27;9.38;;;5.47;;
14760;SDS011;7472;45.396;5.272;2023-09-30T11:40:58;9.43;;;5.43;;
14760;SDS011;7472;45.396;5.272;2023-09-30T11:43:27;8.90;;;5.50;;
14760;SDS011;7472;45.396;5.272;2023-09-30T11:46:05;9.40;;;5.60;;
14760;SDS011;7472;45.396;5.272;2023-09-30T11:48:33;9.25;;;4.95;;
14760;SDS011;7472;45.396;5.272;2023-09-30T11:51:03;11.68;;;5.85;;
14760;SDS011;7472;45.396;5.272;2023-09-30T11:53:31;8.68;;;5.32;;
14760;SDS011;7472;45.396;5.272;2023-09-30T11:56:00;9.63;;;5.70;;
14760;SDS011;7472;45.396;5.272;2023-09-30T11:58:28;9.80;;;5.85;;
14760;SDS011;7472;45.396;5.272;2023-09-30T12:00:57;10.60;;;5.80;;
14760;SDS011;7472;45.396;5.272;2023-09-30T12:03:26;12.50;;;6.45;;
14760;SDS011;7472;45.396;5.272;2023-09-30T12:05:53;10.77;;;6.03;;
14760;SDS011;7472;45.396;5.272;2023-09-30T12:08:23;8.60;;;5.43;;
14760;SDS011;7472;45.396;5.272;2023-09-30T12:10:50;8.68;;;6.05;;
14760;SDS011;7472;45.396;5.272;2023-09-30T12:13:18;12.63;;;6.68;;
14760;SDS011;7472;45.396;5.272;2023-09-30T12:15:45;8.93;;;5.60;;
14760;SDS011;7472;45.396;5.272;2023-09-30T12:18:13;8.88;;;5.30;;
14760;SDS011;7472;45.396;5.272;2023-09-30T12:20:42;10.82;;;5.72;;
14760;SDS011;7472;45.396;5.272;2023-09-30T12:23:09;10.48;;;5.97;;
14760;SDS011;7472;45.396;5.272;2023-09-30T12:25:38;10.15;;;6.47;;
14760;SDS011;7472;45.396;5.272;2023-09-30T12:28:06;10.20;;;6.05;;
14760;SDS011;7472;45.396;5.272;2023-09-30T12:30:33;9.70;;;5.93;;
14760;SDS011;7472;45.396;5.272;2023-09-30T12:33:00;12.68;;;7.20;;
14760;SDS011;7472;45.396;5.272;2023-09-30T12:35:28;11.05;;;7.78;;
14760;SDS011;7472;45.396;5.272;2023-09-30T12:37:55;11.48;;;7.35;;
14760;SDS011;7472;45.396;5.272;2023-09-30T12:40:23;12.52;;;7.03;;
14760;SDS011;7472;45.396;5.272;2023-09-30T12:42:51;12.02;;;7.50;;
14760;SDS011;7472;45.396;5.272;2023-09-30T12:45:19;14.32;;;7.72;;
14760;SDS011;7472;45.396;5.272;2023-09-30T12:47:46;13.27;;;8.18;;
14760;SDS011;7472;45.396;5.272;2023-09-30T12:50:17;15.77;;;8.73;;
14760;SDS011;7472;45.396;5.272;2023-09-30T12:52:45;12.77;;;8.48;;
14760;SDS011;7472;45.396;5.272;2023-09-30T12:55:12;15.38;;;8.80;;
14760;SDS011;7472;45.396;5.272;2023-09-30T12:57:43;16.83;;;8.73;;
14760;SDS011;7472;45.396;5.272;2023-09-30T13:00:12;12.82;;;8.27;;
14760;SDS011;7472;45.396;5.272;2023-09-30T13:02:41;14.38;;;9.15;;
14760;SDS011;7472;45.396;5.272;2023-09-30T13:05:08;13.45;;;8.60;;
14760;SDS011;7472;45.396;5.272;2023-09-30T13:07:37;11.95;;;8.05;;
14760;SDS011;7472;45.396;5.272;2023-09-30T13:10:05;14.82;;;8.18;;
14760;SDS011;7472;45.396;5.272;2023-09-30T13:12:33;17.02;;;8.60;;
14760;SDS011;7472;45.396;5.272;2023-09-30T13:15:00;12.93;;;8.75;;
14760;SDS011;7472;45.396;5.272;2023-09-30T13:17:29;13.73;;;9.23;;
14760;SDS011;7472;45.396;5.272;2023-09-30T13:19:57;12.68;;;9.02;;
14760;SDS011;7472;45.396;5.272;2023-09-30T13:22:25;15.68;;;8.98;;
14760;SDS011;7472;45.396;5.272;2023-09-30T13:24:52;13.57;;;9.23;;
14760;SDS011;7472;45.396;5.272;2023-09-30T13:27:19;16.13;;;9.35;;
14760;SDS011;7472;45.396;5.272;2023-09-30T13:29:47;15.07;;;8.13;;
14760;SDS011;7472;45.396;5.272;2023-09-30T13:32:14;15.32;;;9.10;;
14760;SDS011;7472;45.396;5.272;2023-09-30T13:34:45;13.18;;;8.65;;
14760;SDS011;7472;45.396;5.272;2023-09-30T13:37:13;13.73;;;8.40;;
14760;SDS011;7472;45.396;5.272;2023-09-30T13:39:41;14.10;;;8.93;;
14760;SDS011;7472;45.396;5.272;2023-09-30T13:42:08;16.55;;;9.05;;
14760;SDS011;7472;45.396;5.272;2023-09-30T13:44:36;15.82;;;8.40;;
14760;SDS011;7472;45.396;5.272;2023-09-30T13:47:03;16.88;;;9.82;;
14760;SDS011;7472;45.396;5.272;2023-09-30T13:49:30;13.93;;;8.95;;
14760;SDS011;7472;45.396;5.272;2023-09-30T13:52:00;15.45;;;8.20;;
14760;SDS011;7472;45.396;5.272;2023-09-30T13:54:28;13.88;;;8.55;;
14760;SDS011;7472;45.396;5.272;2023-09-30T13:56:55;15.00;;;9.07;;
14760;SDS011;7472;45.396;5.272;2023-09-30T13:59:22;13.82;;;8.77;;
14760;SDS011;7472;45.396;5.272;2023-09-30T14:01:50;12.35;;;8.57;;
14760;SDS011;7472;45.396;5.272;2023-09-30T14:04:18;14.63;;;8.27;;
14760;SDS011;7472;45.396;5.272;2023-09-30T14:06:45;12.38;;;8.23;;
14760;SDS011;7472;45.396;5.272;2023-09-30T14:09:14;13.55;;;7.40;;
14760;SDS011;7472;45.396;5.272;2023-09-30T14:11:42;16.08;;;8.45;;
14760;SDS011;7472;45.396;5.272;2023-09-30T14:14:09;12.85;;;9.15;;
14760;SDS011;7472;45.396;5.272;2023-09-30T14:16:36;13.90;;;8.88;;
14760;SDS011;7472;45.396;5.272;2023-09-30T14:19:04;15.90;;;9.45;;
14760;SDS011;7472;45.396;5.272;2023-09-30T14:21:31;16.27;;;8.75;;
14760;SDS011;7472;45.396;5.272;2023-09-30T14:23:58;17.35;;;9.07;;
14760;SDS011;7472;45.396;5.272;2023-09-30T14:26:28;12.57;;;8.27;;
14760;SDS011;7472;45.396;5.272;2023-09-30T14:28:56;11.90;;;7.55;;
14760;SDS011;7472;45.396;5.272;2023-09-30T14:31:23;16.75;;;9.30;;
14760;SDS011;7472;45.396;5.272;2023-09-30T14:33:50;17.30;;;9.65;;
14760;SDS011;7472;45.396;5.272;2023-09-30T14:36:18;13.07;;;8.95;;
14760;SDS011;7472;45.396;5.272;2023-09-30T14:38:45;15.07;;;9.77;;
14760;SDS011;7472;45.396;5.272;2023-09-30T14:41:14;14.77;;;9.25;;
14760;SDS011;7472;45.396;5.272;2023-09-30T14:43:44;14.63;;;9.32;;
14760;SDS011;7472;45.396;5.272;2023-09-30T14:46:11;13.27;;;9.10;;
14760;SDS011;7472;45.396;5.272;2023-09-30T14:48:39;16.35;;;9.50;;
14760;SDS011;7472;45.396;5.272;2023-09-30T14:51:07;16.88;;;9.48;;
14760;SDS011;7472;45.396;5.272;2023-09-30T14:53:34;13.07;;;8.82;;
14760;SDS011;7472;45.396;5.272;2023-09-30T14:56:02;14.68;;;9.02;;
14760;SDS011;7472;45.396;5.272;2023-09-30T14:58:31;14.40;;;8.27;;
14760;SDS011;7472;45.396;5.272;2023-09-30T15:01:00;15.50;;;9.45;;
14760;SDS011;7472;45.396;5.272;2023-09-30T15:03:28;14.23;;;8.98;;
14760;SDS011;7472;45.396;5.272;2023-09-30T15:05:59;14.60;;;8.13;;
14760;SDS011;7472;45.396;5.272;2023-09-30T15:08:27;11.38;;;5.80;;
14760;SDS011;7472;45.396;5.272;2023-09-30T15:10:54;16.73;;;9.95;;